Time;durP1;ratioP1;P1;durP2;ratioP2;P2;SDS_P1;SDS_P2;PMS_P1;PMS_P2;Temp;Humidity;BMP_temperature;BMP_pressure;BME280_temperature;BME280_humidity;BME280_pressure;Samples;Min_cycle;Max_cycle;Signal;HPM_P1;HPM_P2
2023/06/27 00:01:52;;;;;;;21.95;19.88;;;12.50;99.90;;;;;;4994861;28;20057;-75
2023/06/27 00:04:19;;;;;;;20.60;19.10;;;12.50;99.90;;;;;;4999435;28;20057;-75
2023/06/27 00:06:46;;;;;;;21.02;19.40;;;12.40;99.90;;;;;;4996703;28;20069;-75
2023/06/27 00:09:14;;;;;;;22.05;20.15;;;12.30;99.90;;;;;;4997472;28;20045;-74
2023/06/27 00:11:41;;;;;;;21.13;19.17;;;12.30;99.90;;;;;;4992466;28;20038;-75
2023/06/27 00:14:09;;;;;;;20.73;19.08;;;12.40;99.90;;;;;;4996240;28;20058;-75
2023/06/27 00:16:36;;;;;;;20.58;19.08;;;12.30;99.90;;;;;;4995022;28;20097;-75
2023/06/27 00:19:04;;;;;;;20.08;18.67;;;12.20;99.90;;;;;;4997398;28;20046;-75
2023/06/27 00:21:32;;;;;;;20.92;19.25;;;12.10;99.90;;;;;;4991088;28;20054;-74
2023/06/27 00:24:00;;;;;;;20.08;18.63;;;12.00;99.90;;;;;;4998680;28;20054;-76
2023/06/27 00:26:28;;;;;;;20.60;19.00;;;12.00;99.90;;;;;;4997983;28;20045;-76
2023/06/27 00:28:55;;;;;;;21.08;19.63;;;12.10;99.90;;;;;;4996520;28;20050;-75
2023/06/27 00:31:22;;;;;;;20.33;19.00;;;12.10;99.90;;;;;;4998161;28;20049;-75
2023/06/27 00:33:49;;;;;;;20.77;19.17;;;12.10;99.90;;;;;;4985104;28;20041;-75
2023/06/27 00:36:17;;;;;;;19.75;18.05;;;12.00;99.90;;;;;;4994587;28;20463;-75
2023/06/27 00:38:44;;;;;;;19.27;17.98;;;11.90;99.90;;;;;;4994524;28;20073;-75
2023/06/27 00:41:12;;;;;;;19.48;17.95;;;11.80;99.90;;;;;;4980655;28;20451;-75
2023/06/27 00:43:40;;;;;;;19.08;17.70;;;11.60;99.90;;;;;;4993977;28;20050;-75
2023/06/27 00:46:08;;;;;;;19.48;18.05;;;11.60;99.90;;;;;;4995042;28;20046;-75
2023/06/27 00:48:36;;;;;;;19.35;17.95;;;11.40;99.90;;;;;;5002079;28;20041;-75
2023/06/27 00:51:06;;;;;;;19.50;18.10;;;11.40;99.90;;;;;;4994769;28;20076;-75
2023/06/27 00:53:33;;;;;;;19.90;18.35;;;11.30;99.90;;;;;;4997929;28;20056;-74
2023/06/27 00:55:59;;;;;;;20.17;18.48;;;11.30;99.90;;;;;;4978552;28;20037;-75
2023/06/27 00:58:26;;;;;;;19.67;18.38;;;11.30;99.90;;;;;;4995634;28;20153;-75
2023/06/27 01:00:53;;;;;;;20.05;18.85;;;11.40;99.90;;;;;;4999780;28;20073;-75
2023/06/27 01:03:21;;;;;;;20.20;18.40;;;11.40;99.90;;;;;;5008766;28;20674;-75
2023/06/27 01:05:49;;;;;;;21.23;19.42;;;11.30;99.90;;;;;;4977579;28;20049;-76
2023/06/27 01:08:34;;;;;;;21.45;19.75;;;11.30;99.90;;;;;;4996489;28;20056;-75
2023/06/27 01:11:12;;;;;;;19.85;18.55;;;11.30;99.90;;;;;;4998087;28;20034;-76
2023/06/27 01:13:47;;;;;;;20.80;18.98;;;11.20;99.90;;;;;;4991861;28;20049;-74
2023/06/27 01:16:16;;;;;;;20.27;18.73;;;11.30;99.90;;;;;;4996272;28;20049;-76
2023/06/27 01:18:44;;;;;;;19.60;18.20;;;11.20;99.90;;;;;;4992188;28;20050;-75
2023/06/27 01:21:12;;;;;;;20.13;18.70;;;11.10;99.90;;;;;;4992845;28;20048;-75
2023/06/27 01:23:58;;;;;;;18.92;17.63;;;11.10;99.90;;;;;;4996179;28;20132;-74
2023/06/27 01:26:27;;;;;;;18.88;17.67;;;11.00;99.90;;;;;;4995968;28;20053;-74
2023/06/27 01:28:54;;;;;;;19.27;17.85;;;10.90;99.90;;;;;;4984573;28;20038;-76
2023/06/27 01:31:41;;;;;;;19.40;17.92;;;10.80;99.90;;;;;;4997507;28;20506;-75
2023/06/27 01:34:17;;;;;;;19.48;17.98;;;10.80;99.90;;;;;;4993607;28;20046;-76
2023/06/27 01:36:56;;;;;;;19.80;17.77;;;10.60;99.90;;;;;;4990925;28;20887;-75
2023/06/27 01:39:30;;;;;;;19.35;17.65;;;10.70;99.90;;;;;;4995482;28;20112;-75
2023/06/27 01:42:07;;;;;;;18.80;17.50;;;10.60;99.90;;;;;;4996708;28;20124;-75
2023/06/27 01:44:38;;;;;;;19.95;18.45;;;10.60;99.90;;;;;;4994332;28;20046;-74
2023/06/27 01:47:07;;;;;;;19.42;18.08;;;10.50;99.90;;;;;;4977023;28;20038;-75
2023/06/27 01:49:33;;;;;;;20.27;18.77;;;10.50;99.90;;;;;;4976526;28;20042;-75
2023/06/27 01:52:00;;;;;;;20.83;18.85;;;10.40;99.90;;;;;;4989878;28;20548;-75
2023/06/27 01:54:27;;;;;;;20.50;19.00;;;10.30;99.90;;;;;;4994414;28;20120;-76
2023/06/27 01:56:54;;;;;;;19.92;18.48;;;10.40;99.90;;;;;;4979215;28;20045;-75
2023/06/27 01:59:21;;;;;;;20.55;19.15;;;10.40;99.90;;;;;;4994698;28;20050;-75
2023/06/27 02:01:48;;;;;;;19.75;18.25;;;10.30;99.90;;;;;;4975580;28;20716;-75
2023/06/27 02:04:15;;;;;;;20.42;18.83;;;10.20;99.90;;;;;;4993428;28;20401;-74
2023/06/27 02:06:41;;;;;;;20.23;18.52;;;10.20;99.90;;;;;;4995640;28;20041;-76
2023/06/27 02:09:10;;;;;;;19.33;18.05;;;10.20;99.90;;;;;;4980479;28;20073;-74
2023/06/27 02:11:38;;;;;;;19.50;17.90;;;10.20;99.90;;;;;;4995234;28;20433;-74
2023/06/27 02:14:05;;;;;;;19.73;18.35;;;10.10;99.90;;;;;;5010653;28;20042;-75
2023/06/27 02:16:32;;;;;;;20.10;18.45;;;10.20;99.90;;;;;;4991980;28;20049;-75
2023/06/27 02:18:59;;;;;;;20.33;18.40;;;10.10;99.90;;;;;;4992003;28;20077;-74
2023/06/27 02:21:25;;;;;;;19.23;18.02;;;10.10;99.90;;;;;;4994590;28;20607;-75
2023/06/27 02:23:52;;;;;;;21.02;19.15;;;10.10;99.90;;;;;;4994885;28;20050;-74
2023/06/27 02:26:19;;;;;;;20.98;19.27;;;10.10;99.90;;;;;;4997795;28;20049;-74
2023/06/27 02:28:45;;;;;;;19.92;18.23;;;10.20;99.90;;;;;;4994610;28;20104;-75
2023/06/27 02:31:12;;;;;;;20.70;19.10;;;10.20;99.90;;;;;;4978874;28;20042;-75
2023/06/27 02:33:39;;;;;;;20.17;18.58;;;10.20;99.90;;;;;;5002448;28;20040;-75
2023/06/27 02:36:06;;;;;;;21.08;19.58;;;10.10;99.90;;;;;;4978340;28;20107;-75
2023/06/27 02:38:33;;;;;;;19.60;18.17;;;10.00;99.90;;;;;;4993657;28;20176;-75
2023/06/27 02:41:00;;;;;;;20.00;17.75;;;9.90;99.90;;;;;;4981936;28;20059;-76
2023/06/27 02:43:27;;;;;;;19.35;17.88;;;9.80;99.90;;;;;;4997107;28;20116;-75
2023/06/27 02:45:57;;;;;;;20.52;18.77;;;9.70;99.90;;;;;;4993252;28;20042;-76
2023/06/27 02:48:23;;;;;;;19.80;18.25;;;9.60;99.90;;;;;;4977083;28;20046;-76
2023/06/27 02:50:52;;;;;;;19.73;18.33;;;9.60;99.90;;;;;;4976671;28;20046;-75
2023/06/27 02:53:19;;;;;;;20.73;19.13;;;9.60;99.90;;;;;;4981526;28;20038;-75
2023/06/27 02:55:48;;;;;;;21.23;19.42;;;9.50;99.90;;;;;;4989774;28;20034;-75
2023/06/27 02:58:15;;;;;;;20.38;18.98;;;9.60;99.90;;;;;;4996840;28;20034;-75
2023/06/27 03:00:41;;;;;;;20.38;18.85;;;9.50;99.90;;;;;;4992677;28;20074;-74
2023/06/27 03:03:08;;;;;;;20.55;18.92;;;9.50;99.90;;;;;;4991780;28;20182;-75
2023/06/27 03:05:35;;;;;;;20.33;18.90;;;9.60;99.90;;;;;;4979566;28;20064;-75
2023/06/27 03:08:02;;;;;;;19.90;18.48;;;9.60;99.90;;;;;;4995186;28;20123;-75
2023/06/27 03:10:30;;;;;;;19.20;17.88;;;9.70;99.90;;;;;;5001765;28;20068;-75
2023/06/27 03:12:57;;;;;;;19.55;18.13;;;9.70;99.90;;;;;;4980700;28;20053;-75
2023/06/27 03:15:24;;;;;;;20.55;19.00;;;9.80;99.90;;;;;;4995304;28;20048;-74
2023/06/27 03:17:52;;;;;;;20.70;19.00;;;9.70;99.90;;;;;;4998345;28;20073;-75
2023/06/27 03:20:20;;;;;;;20.58;18.88;;;9.80;99.90;;;;;;4995419;28;20516;-74
2023/06/27 03:22:47;;;;;;;20.17;18.75;;;9.70;99.90;;;;;;4992967;28;20038;-75
2023/06/27 03:25:15;;;;;;;20.70;19.20;;;9.70;99.90;;;;;;4997337;28;20046;-75
2023/06/27 03:27:42;;;;;;;21.40;19.67;;;9.70;99.90;;;;;;4997729;28;20104;-75
2023/06/27 03:30:10;;;;;;;21.35;19.55;;;9.90;99.90;;;;;;4999641;28;20496;-74
2023/06/27 03:32:37;;;;;;;21.25;19.42;;;10.00;99.90;;;;;;4997096;28;20052;-75
2023/06/27 03:35:05;;;;;;;20.48;18.77;;;10.10;99.90;;;;;;4995692;28;20046;-76
2023/06/27 03:37:33;;;;;;;20.50;19.00;;;10.00;99.90;;;;;;4977234;28;20049;-75
2023/06/27 03:40:00;;;;;;;20.20;18.48;;;9.80;99.90;;;;;;4994366;28;20046;-74
2023/06/27 03:42:27;;;;;;;22.85;19.10;;;9.80;99.90;;;;;;4998378;28;20112;-75
2023/06/27 03:44:54;;;;;;;20.25;18.65;;;9.80;99.90;;;;;;4999920;28;20099;-74
2023/06/27 03:47:22;;;;;;;20.17;18.35;;;9.80;99.90;;;;;;5000598;28;20056;-74
2023/06/27 03:49:49;;;;;;;20.30;18.55;;;9.80;99.90;;;;;;4982804;28;20045;-74
2023/06/27 03:52:16;;;;;;;20.77;19.02;;;9.70;99.90;;;;;;4996911;28;20046;-74
2023/06/27 03:54:44;;;;;;;20.17;18.65;;;9.80;99.90;;;;;;4998458;28;20132;-75
2023/06/27 03:57:14;;;;;;;21.20;19.52;;;9.80;99.90;;;;;;4981063;28;20046;-74
2023/06/27 03:59:43;;;;;;;21.27;19.67;;;9.80;99.90;;;;;;4993657;28;20128;-74
2023/06/27 04:02:10;;;;;;;20.08;18.77;;;9.90;99.90;;;;;;4979223;28;20057;-75
2023/06/27 04:04:36;;;;;;;20.38;18.98;;;10.00;99.90;;;;;;4999039;28;20046;-75
2023/06/27 04:07:04;;;;;;;20.00;18.50;;;10.10;99.90;;;;;;4977825;28;20193;-75
2023/06/27 04:09:30;;;;;;;20.80;19.50;;;10.00;99.90;;;;;;4996665;28;20037;-75
2023/06/27 04:11:59;;;;;;;19.85;18.45;;;10.10;99.90;;;;;;4996059;28;20038;-74
2023/06/27 04:14:27;;;;;;;19.95;18.48;;;10.20;99.90;;;;;;4980552;28;20038;-75
2023/06/27 04:16:54;;;;;;;19.27;17.65;;;10.30;99.90;;;;;;4992295;28;20046;-75
2023/06/27 04:19:21;;;;;;;18.85;17.33;;;10.40;99.90;;;;;;4993364;28;20888;-75
2023/06/27 04:21:48;;;;;;;18.25;17.00;;;10.60;99.90;;;;;;4977680;28;20728;-75
2023/06/27 04:24:15;;;;;;;17.65;16.55;;;10.90;99.90;;;;;;4997543;28;20041;-75
2023/06/27 04:26:42;;;;;;;18.63;17.30;;;11.00;99.90;;;;;;4995081;28;20045;-75
2023/06/27 04:29:09;;;;;;;19.02;17.63;;;11.20;99.90;;;;;;4980603;28;20075;-75
2023/06/27 04:31:36;;;;;;;19.42;18.02;;;11.20;99.90;;;;;;4995082;28;20048;-74
2023/06/27 04:34:03;;;;;;;18.65;17.35;;;11.60;99.90;;;;;;4976950;28;20042;-75
2023/06/27 04:36:30;;;;;;;19.27;17.60;;;11.80;99.90;;;;;;4994319;28;20097;-76
2023/06/27 04:38:57;;;;;;;21.10;19.60;;;12.40;99.90;;;;;;4992827;28;20073;-75
2023/06/27 04:41:28;;;;;;;21.83;20.17;;;12.70;99.90;;;;;;4993951;28;20107;-75
2023/06/27 04:43:58;;;;;;;24.23;22.73;;;13.00;99.90;;;;;;4993675;28;20048;-75
2023/06/27 04:46:28;;;;;;;25.50;23.70;;;13.40;99.90;;;;;;4992179;28;20054;-75
2023/06/27 04:48:59;;;;;;;26.65;24.50;;;13.90;99.90;;;;;;4993098;28;20042;-75
2023/06/27 04:51:29;;;;;;;26.95;24.85;;;14.30;99.90;;;;;;4997440;28;20050;-76
2023/06/27 04:53:56;;;;;;;27.25;25.25;;;14.70;99.90;;;;;;4979776;28;20049;-75
2023/06/27 04:56:23;;;;;;;27.00;24.80;;;14.80;99.90;;;;;;4996361;28;20045;-75
2023/06/27 04:58:51;;;;;;;26.95;24.60;;;15.10;99.90;;;;;;4992688;28;20056;-75
2023/06/27 05:01:18;;;;;;;28.23;26.02;;;15.20;99.90;;;;;;4994222;28;20038;-75
2023/06/27 05:03:46;;;;;;;27.33;25.35;;;15.70;99.90;;;;;;4994400;28;20034;-75
2023/06/27 05:06:13;;;;;;;28.40;26.02;;;15.90;99.90;;;;;;4993093;28;20068;-74
2023/06/27 05:08:40;;;;;;;27.90;25.70;;;16.10;99.90;;;;;;4996918;28;20073;-74
2023/06/27 05:11:06;;;;;;;28.30;26.08;;;16.20;99.90;;;;;;4991995;28;20046;-75
2023/06/27 05:13:34;;;;;;;27.92;25.92;;;16.20;99.90;;;;;;4996975;28;20038;-75
2023/06/27 05:16:00;;;;;;;29.35;27.00;;;16.10;99.90;;;;;;4996262;28;20131;-75
2023/06/27 05:18:27;;;;;;;28.67;26.13;;;16.00;99.90;;;;;;4996099;28;20061;-75
2023/06/27 05:20:55;;;;;;;27.90;25.60;;;15.80;99.90;;;;;;4995720;28;20046;-75
2023/06/27 05:23:22;;;;;;;27.40;25.40;;;15.60;99.90;;;;;;4993507;28;20056;-75
2023/06/27 05:25:49;;;;;;;28.67;26.52;;;15.50;99.90;;;;;;4993934;28;20081;-75
2023/06/27 05:28:17;;;;;;;28.48;26.17;;;15.40;99.90;;;;;;4976551;28;20048;-75
2023/06/27 05:30:44;;;;;;;27.45;25.25;;;15.30;99.90;;;;;;4995850;28;20722;-75
2023/06/27 05:33:11;;;;;;;28.15;25.85;;;15.10;99.90;;;;;;4991535;28;20085;-75
2023/06/27 05:35:37;;;;;;;27.58;25.27;;;15.00;99.90;;;;;;4995287;28;20058;-76
2023/06/27 05:38:05;;;;;;;27.77;25.40;;;15.00;99.90;;;;;;4989864;28;20046;-75
2023/06/27 05:40:32;;;;;;;27.45;25.42;;;15.00;99.90;;;;;;4992440;28;20053;-75
2023/06/27 05:42:59;;;;;;;27.30;24.98;;;14.90;99.90;;;;;;4990849;28;20038;-75
2023/06/27 05:45:26;;;;;;;28.00;25.40;;;14.90;99.90;;;;;;4974089;28;20050;-74
2023/06/27 05:47:53;;;;;;;26.88;24.42;;;14.90;99.90;;;;;;4979926;28;20037;-74
2023/06/27 05:50:20;;;;;;;28.00;25.85;;;14.90;99.90;;;;;;4992094;28;21700;-75
2023/06/27 05:52:47;;;;;;;27.02;24.98;;;14.80;99.90;;;;;;4995595;28;20037;-75
2023/06/27 05:55:13;;;;;;;27.83;25.67;;;14.90;99.90;;;;;;4991090;28;20041;-75
2023/06/27 05:57:40;;;;;;;28.77;26.08;;;15.00;99.90;;;;;;4992556;28;20057;-75
2023/06/27 06:00:10;;;;;;;27.83;25.45;;;15.10;99.90;;;;;;4991347;28;20053;-76
2023/06/27 06:02:38;;;;;;;27.70;25.65;;;15.40;99.90;;;;;;4996356;28;20054;-75
2023/06/27 06:05:07;;;;;;;26.88;24.48;;;15.70;99.90;;;;;;4992573;28;20564;-75
2023/06/27 06:07:34;;;;;;;27.48;25.35;;;16.20;99.90;;;;;;4993668;28;20088;-75
2023/06/27 06:10:01;;;;;;;27.85;25.58;;;16.60;99.90;;;;;;4993093;28;20046;-75
2023/06/27 06:12:28;;;;;;;28.80;26.70;;;17.00;99.90;;;;;;4991519;28;20819;-75
2023/06/27 06:14:54;;;;;;;29.40;27.25;;;17.30;99.90;;;;;;4993644;28;20047;-75
2023/06/27 06:17:21;;;;;;;30.77;28.45;;;17.60;99.90;;;;;;4994787;28;20127;-76
2023/06/27 06:19:48;;;;;;;30.00;27.52;;;17.60;99.90;;;;;;4991883;28;20046;-76
2023/06/27 06:22:15;;;;;;;30.55;27.60;;;17.60;99.90;;;;;;4979029;28;20136;-75
2023/06/27 06:24:42;;;;;;;29.55;27.27;;;17.70;99.90;;;;;;4992726;28;20657;-76
2023/06/27 06:27:08;;;;;;;29.05;26.90;;;17.80;99.90;;;;;;4976862;28;20041;-76
2023/06/27 06:29:35;;;;;;;29.60;27.08;;;18.00;99.90;;;;;;4978941;28;20050;-76
2023/06/27 06:32:02;;;;;;;28.85;26.55;;;18.10;99.90;;;;;;4990462;28;20125;-75
2023/06/27 06:34:29;;;;;;;30.38;27.50;;;18.00;99.90;;;;;;4990889;28;20049;-75
2023/06/27 06:36:56;;;;;;;29.88;27.60;;;18.10;99.90;;;;;;4994294;28;20042;-75
2023/06/27 06:39:22;;;;;;;30.75;28.33;;;18.00;99.90;;;;;;4995766;28;20049;-75
2023/06/27 06:41:49;;;;;;;31.05;28.58;;;18.10;99.90;;;;;;4996145;28;20096;-75
2023/06/27 06:44:17;;;;;;;31.25;28.77;;;18.20;99.90;;;;;;4981277;28;20132;-76
2023/06/27 06:46:43;;;;;;;30.95;28.10;;;18.30;99.90;;;;;;4997764;28;20116;-75
2023/06/27 06:49:10;;;;;;;32.17;29.35;;;18.50;99.90;;;;;;4995885;28;20706;-75
2023/06/27 06:51:37;;;;;;;32.40;29.83;;;18.30;99.90;;;;;;4994145;28;20062;-76
2023/06/27 06:54:04;;;;;;;32.33;29.10;;;18.10;99.90;;;;;;4977427;28;20720;-75
2023/06/27 06:56:31;;;;;;;31.27;28.42;;;18.10;99.90;;;;;;4992263;28;20552;-75
2023/06/27 06:58:57;;;;;;;30.65;28.15;;;18.20;99.90;;;;;;4992517;28;20129;-75
2023/06/27 07:01:24;;;;;;;32.67;29.52;;;18.10;99.90;;;;;;4993849;28;20094;-76
2023/06/27 07:03:52;;;;;;;31.23;28.50;;;18.20;99.90;;;;;;4990819;28;20049;-76
2023/06/27 07:06:18;;;;;;;31.50;28.85;;;18.30;99.90;;;;;;4991812;28;20104;-75
2023/06/27 07:08:45;;;;;;;31.58;28.88;;;18.50;99.90;;;;;;4993783;28;20066;-75
2023/06/27 07:11:12;;;;;;;30.83;28.35;;;18.70;99.90;;;;;;4990515;28;20121;-76
2023/06/27 07:13:38;;;;;;;31.13;28.65;;;18.80;99.90;;;;;;4991126;28;20755;-76
2023/06/27 07:16:05;;;;;;;32.90;30.27;;;18.80;99.90;;;;;;4990430;28;20080;-75
2023/06/27 07:18:32;;;;;;;31.35;29.05;;;18.60;99.90;;;;;;4991168;28;20056;-76
2023/06/27 07:20:59;;;;;;;31.88;29.50;;;18.50;99.90;;;;;;4991340;28;20049;-75
2023/06/27 07:23:25;;;;;;;31.92;29.45;;;18.60;99.90;;;;;;4978265;28;20132;-76
2023/06/27 07:25:52;;;;;;;31.10;28.90;;;18.90;99.90;;;;;;4990128;28;20050;-75
2023/06/27 07:28:20;;;;;;;33.22;30.77;;;18.90;99.90;;;;;;4990150;28;20129;-73
2023/06/27 07:30:47;;;;;;;32.80;29.85;;;19.10;99.90;;;;;;4973217;28;20733;-74
2023/06/27 07:33:14;;;;;;;31.00;28.58;;;19.20;99.90;;;;;;4989145;28;20063;-73
2023/06/27 07:35:45;;;;;;;32.30;29.60;;;19.40;99.90;;;;;;4994912;28;20628;-73
2023/06/27 07:38:11;;;;;;;32.42;29.60;;;19.60;99.90;;;;;;4994017;28;20136;-74
2023/06/27 07:40:38;;;;;;;32.63;30.08;;;19.80;99.90;;;;;;4989399;28;20480;-74
2023/06/27 07:43:05;;;;;;;32.97;30.55;;;19.50;99.90;;;;;;4994958;28;20050;-74
2023/06/27 07:45:32;;;;;;;33.40;30.88;;;19.50;99.90;;;;;;4992847;28;20589;-74
2023/06/27 07:47:59;;;;;;;33.33;30.65;;;19.70;99.90;;;;;;4992757;28;20599;-73
2023/06/27 07:50:26;;;;;;;31.20;28.52;;;20.00;99.90;;;;;;4988790;28;20064;-74
2023/06/27 07:52:52;;;;;;;32.05;29.08;;;20.20;99.90;;;;;;4994296;28;20046;-73
2023/06/27 07:55:19;;;;;;;30.65;28.48;;;20.00;99.90;;;;;;4989446;28;20050;-73
2023/06/27 07:57:46;;;;;;;32.78;30.23;;;19.60;99.90;;;;;;4996237;28;20062;-73
2023/06/27 08:00:13;;;;;;;31.98;29.27;;;19.80;99.90;;;;;;4994628;28;20046;-74
2023/06/27 08:02:40;;;;;;;29.10;26.90;;;20.20;99.90;;;;;;4997358;28;20127;-73
2023/06/27 08:05:08;;;;;;;28.90;26.58;;;20.20;99.90;;;;;;5001393;28;20056;-74
2023/06/27 08:07:36;;;;;;;30.17;27.90;;;20.10;99.90;;;;;;4993366;28;20140;-74
2023/06/27 08:10:04;;;;;;;28.02;26.05;;;20.20;99.90;;;;;;4994661;28;20530;-74
2023/06/27 08:12:31;;;;;;;32.65;29.90;;;20.20;99.90;;;;;;4994790;28;20046;-72
2023/06/27 08:14:57;;;;;;;29.00;26.58;;;20.30;99.90;;;;;;4997802;28;20654;-72
2023/06/27 08:17:24;;;;;;;31.73;29.45;;;20.60;99.90;;;;;;4994754;28;20136;-73
2023/06/27 08:19:51;;;;;;;30.25;27.92;;;20.40;99.90;;;;;;4992583;28;20046;-74
2023/06/27 08:22:18;;;;;;;28.90;26.60;;;20.40;99.90;;;;;;4989631;28;20045;-73
2023/06/27 08:24:45;;;;;;;30.80;28.00;;;20.70;99.90;;;;;;4994444;28;20045;-73
2023/06/27 08:27:12;;;;;;;30.20;27.65;;;20.60;99.90;;;;;;4992226;28;20042;-73
2023/06/27 08:29:40;;;;;;;32.15;29.70;;;20.50;99.90;;;;;;4998232;28;20101;-73
2023/06/27 08:32:06;;;;;;;31.40;28.83;;;20.30;99.90;;;;;;4991623;28;20141;-73
2023/06/27 08:34:38;;;;;;;31.90;29.40;;;20.40;99.90;;;;;;4978242;28;20037;-73
2023/06/27 08:37:05;;;;;;;30.55;28.35;;;20.40;99.90;;;;;;4991382;28;20132;-73
2023/06/27 08:39:32;;;;;;;30.83;28.08;;;20.30;99.90;;;;;;4995251;28;20054;-72
2023/06/27 08:41:59;;;;;;;31.17;28.77;;;20.40;99.90;;;;;;4997382;28;20586;-73
2023/06/27 08:44:26;;;;;;;30.05;27.95;;;20.60;99.90;;;;;;4992316;28;20042;-73
2023/06/27 08:46:55;;;;;;;31.98;29.48;;;20.60;99.90;;;;;;4981706;28;20652;-73
2023/06/27 08:49:27;;;;;;;31.95;29.10;;;20.30;99.90;;;;;;4991674;28;20053;-72
2023/06/27 08:51:57;;;;;;;32.28;29.35;;;20.20;99.90;;;;;;4994442;28;20045;-73
2023/06/27 08:54:34;;;;;;;31.48;28.88;;;20.30;99.90;;;;;;4995750;28;20041;-74
2023/06/27 08:57:03;;;;;;;31.40;29.02;;;20.30;99.90;;;;;;4994097;28;20062;-73
2023/06/27 08:59:37;;;;;;;31.70;29.15;;;20.50;99.90;;;;;;5009066;28;20054;-74
2023/06/27 09:02:06;;;;;;;32.38;29.95;;;20.40;99.90;;;;;;4988925;28;20037;-74
2023/06/27 09:04:34;;;;;;;30.25;27.70;;;20.50;99.90;;;;;;4996558;28;20045;-71
2023/06/27 09:07:01;;;;;;;31.13;29.13;;;20.90;99.90;;;;;;4995366;28;20112;-73
2023/06/27 09:09:30;;;;;;;29.70;27.50;;;21.10;99.90;;;;;;4996213;28;20045;-73
2023/06/27 09:12:02;;;;;;;28.98;26.98;;;20.70;99.90;;;;;;4995914;28;20715;-73
2023/06/27 09:14:29;;;;;;;30.65;28.17;;;20.30;99.90;;;;;;4991766;28;20681;-73
2023/06/27 09:16:56;;;;;;;30.73;28.63;;;20.40;99.90;;;;;;4995334;28;20615;-73
2023/06/27 09:19:22;;;;;;;30.42;28.25;;;20.60;99.90;;;;;;4994258;28;20061;-73
2023/06/27 09:21:50;;;;;;;31.50;29.27;;;20.90;99.90;;;;;;4992238;28;20132;-73
2023/06/27 09:24:24;;;;;;;29.85;27.58;;;21.00;99.90;;;;;;4974853;28;20054;-73
2023/06/27 09:26:50;;;;;;;29.95;27.80;;;20.90;99.90;;;;;;4974878;28;20046;-73
2023/06/27 09:29:19;;;;;;;29.33;27.33;;;20.80;99.90;;;;;;4990934;28;20038;-73
2023/06/27 09:31:46;;;;;;;30.17;27.60;;;20.70;99.90;;;;;;4991652;28;20049;-72
2023/06/27 09:34:13;;;;;;;31.00;28.48;;;20.60;99.90;;;;;;4994255;28;20069;-73
2023/06/27 09:36:40;;;;;;;30.02;27.73;;;20.30;99.90;;;;;;4994214;28;20139;-74
2023/06/27 09:39:12;;;;;;;30.00;27.45;;;20.10;99.90;;;;;;4990684;28;20046;-73
2023/06/27 09:41:47;;;;;;;29.50;27.20;;;19.90;99.90;;;;;;4990742;28;20081;-73
2023/06/27 09:44:19;;;;;;;31.83;29.23;;;19.70;99.90;;;;;;4988081;28;20604;-73
2023/06/27 09:46:47;;;;;;;33.72;30.95;;;19.80;99.90;;;;;;4992722;28;20038;-73
2023/06/27 09:49:18;;;;;;;32.47;29.60;;;19.90;99.90;;;;;;4991650;28;20074;-72
2023/06/27 09:51:46;;;;;;;32.78;29.90;;;20.20;99.90;;;;;;4995241;28;20131;-73
2023/06/27 09:54:13;;;;;;;31.35;29.20;;;20.70;99.90;;;;;;4991563;28;20046;-73
2023/06/27 09:56:51;;;;;;;31.90;29.40;;;20.90;99.90;;;;;;4991467;28;20644;-73
2023/06/27 09:59:22;;;;;;;29.85;27.60;;;20.90;99.90;;;;;;4992469;28;20048;-73
2023/06/27 10:01:52;;;;;;;31.73;29.25;;;20.80;99.90;;;;;;4991397;28;20046;-73
2023/06/27 10:04:20;;;;;;;29.70;26.98;;;20.70;99.90;;;;;;4987778;28;20037;-73
2023/06/27 10:07:13;;;;;;;31.23;28.83;;;20.70;99.90;;;;;;4987663;28;20058;-73
2023/06/27 10:09:40;;;;;;;28.90;26.40;;;20.70;99.90;;;;;;4990964;28;20444;-73
2023/06/27 10:12:08;;;;;;;29.73;27.45;;;21.10;99.90;;;;;;4969626;28;20050;-73
2023/06/27 10:14:35;;;;;;;30.70;27.98;;;20.80;99.90;;;;;;4990738;28;20046;-74
2023/06/27 10:17:03;;;;;;;32.15;29.48;;;20.60;99.90;;;;;;4988684;28;20520;-74
2023/06/27 10:19:36;;;;;;;31.83;29.00;;;20.50;99.90;;;;;;4989988;28;20062;-75
2023/06/27 10:22:10;;;;;;;32.60;29.60;;;20.60;99.90;;;;;;4987843;28;20133;-74
2023/06/27 10:24:42;;;;;;;34.13;31.50;;;20.80;99.90;;;;;;4991286;28;20060;-75
2023/06/27 10:27:13;;;;;;;32.10;29.50;;;20.70;99.90;;;;;;4991732;28;20140;-75
2023/06/27 10:29:44;;;;;;;31.90;28.85;;;20.90;99.90;;;;;;4990287;28;20146;-74
2023/06/27 10:32:15;;;;;;;32.22;29.63;;;20.90;99.90;;;;;;4991143;28;20045;-75
2023/06/27 10:34:42;;;;;;;31.08;28.45;;;20.80;99.90;;;;;;4988007;28;20050;-75
2023/06/27 10:37:24;;;;;;;32.40;29.83;;;20.60;99.90;;;;;;4991161;28;20467;-75
2023/06/27 10:40:00;;;;;;;32.22;29.52;;;20.40;99.90;;;;;;4987349;28;20739;-75
2023/06/27 10:42:29;;;;;;;32.08;29.77;;;20.40;99.90;;;;;;4989735;28;20045;-75
2023/06/27 10:44:59;;;;;;;32.03;29.38;;;20.20;99.90;;;;;;4984758;28;20501;-74
2023/06/27 10:47:34;;;;;;;31.90;29.15;;;20.50;99.90;;;;;;4988674;28;20138;-77
2023/06/27 10:50:05;;;;;;;30.52;27.83;;;20.80;99.90;;;;;;4990662;28;20111;-74
2023/06/27 10:52:33;;;;;;;30.98;28.23;;;20.90;99.90;;;;;;4989548;28;20615;-75
2023/06/27 10:55:15;;;;;;;31.15;28.85;;;21.10;99.90;;;;;;4992449;28;20566;-75
2023/06/27 10:57:48;;;;;;;33.15;30.65;;;21.20;99.90;;;;;;4987830;28;20097;-74
2023/06/27 11:00:26;;;;;;;32.22;29.55;;;20.80;99.90;;;;;;4987628;28;20573;-74
2023/06/27 11:02:56;;;;;;;30.40;27.98;;;20.90;99.90;;;;;;4971944;28;20042;-75
2023/06/27 11:05:43;;;;;;;30.23;27.85;;;20.90;99.90;;;;;;4988963;28;20321;-75
2023/06/27 11:08:15;;;;;;;30.05;27.65;;;21.20;99.90;;;;;;4973479;28;20073;-74
2023/06/27 11:11:02;;;;;;;30.63;27.45;;;21.10;99.90;;;;;;4992280;28;20328;-74
2023/06/27 11:13:32;;;;;;;32.22;29.77;;;21.30;99.90;;;;;;4990454;28;20164;-75
2023/06/27 11:15:59;;;;;;;34.40;31.33;;;21.50;99.90;;;;;;4991489;28;20058;-75
2023/06/27 11:18:27;;;;;;;33.22;30.83;;;21.40;99.90;;;;;;4991238;28;20141;-75
2023/06/27 11:20:55;;;;;;;34.47;31.80;;;21.80;99.90;;;;;;4995321;28;20144;-72
2023/06/27 11:23:24;;;;;;;30.95;28.55;;;21.70;99.90;;;;;;4988448;28;20058;-74
2023/06/27 11:25:52;;;;;;;32.22;29.83;;;21.80;99.90;;;;;;4992063;28;20037;-72
2023/06/27 11:28:21;;;;;;;32.47;30.05;;;21.70;99.90;;;;;;4990174;28;20049;-72
2023/06/27 11:30:49;;;;;;;33.33;30.58;;;21.70;99.90;;;;;;4991670;28;20204;-72
2023/06/27 11:33:19;;;;;;;33.53;30.75;;;21.60;99.90;;;;;;4997000;28;20416;-72
2023/06/27 11:35:47;;;;;;;30.40;28.00;;;21.60;99.90;;;;;;4991337;28;20038;-71
2023/06/27 11:38:14;;;;;;;29.30;27.05;;;21.50;99.90;;;;;;4992319;28;20045;-71
2023/06/27 11:40:49;;;;;;;30.10;27.95;;;21.40;99.90;;;;;;4978242;28;20106;-72
2023/06/27 11:43:16;;;;;;;29.60;27.08;;;21.10;99.90;;;;;;4990764;28;20034;-71
2023/06/27 11:45:52;;;;;;;29.92;27.80;;;21.30;99.90;;;;;;4991796;28;20058;-71
2023/06/27 11:48:19;;;;;;;32.00;29.52;;;21.50;99.90;;;;;;4993584;28;20124;-72
2023/06/27 11:50:54;;;;;;;29.60;27.30;;;21.70;99.90;;;;;;4996174;28;20065;-72
2023/06/27 11:53:23;;;;;;;30.60;28.48;;;22.10;99.90;;;;;;4992080;28;20069;-72
2023/06/27 11:55:51;;;;;;;30.33;28.33;;;22.50;99.90;;;;;;4994733;28;20038;-72
2023/06/27 11:58:38;;;;;;;32.60;30.02;;;22.80;99.90;;;;;;4995546;28;20787;-72
2023/06/27 12:01:13;;;;;;;31.80;29.23;;;22.80;99.90;;;;;;4993021;28;20041;-72
2023/06/27 12:03:45;;;;;;;31.83;29.73;;;22.90;99.90;;;;;;4992472;28;20053;-72
2023/06/27 12:06:27;;;;;;;30.08;27.92;;;23.10;99.90;;;;;;4993975;28;20585;-71
2023/06/27 12:08:54;;;;;;;31.73;29.73;;;23.10;99.90;;;;;;4972270;28;20113;-72
2023/06/27 12:11:34;;;;;;;31.73;29.67;;;23.30;99.90;;;;;;4990162;28;20053;-72
2023/06/27 12:14:02;;;;;;;28.88;26.77;;;22.90;99.90;;;;;;4992568;28;20100;-72
2023/06/27 12:16:33;;;;;;;29.60;27.38;;;22.40;99.90;;;;;;4991168;28;20042;-72
2023/06/27 12:19:04;;;;;;;29.63;27.40;;;22.20;99.90;;;;;;4992890;28;20077;-71
2023/06/27 12:21:31;;;;;;;30.17;28.15;;;22.00;99.90;;;;;;4990728;28;20164;-72
2023/06/27 12:23:58;;;;;;;30.50;28.40;;;21.80;99.90;;;;;;4994625;28;20088;-72
2023/06/27 12:26:25;;;;;;;31.63;29.40;;;21.60;99.90;;;;;;4991526;28;20069;-72
2023/06/27 12:28:59;;;;;;;32.25;30.17;;;21.70;99.90;;;;;;4994996;28;20042;-73
2023/06/27 12:31:26;;;;;;;31.40;29.42;;;21.50;99.90;;;;;;4990105;28;20068;-73
2023/06/27 12:33:54;;;;;;;31.73;28.98;;;21.50;99.90;;;;;;4989527;28;20064;-72
2023/06/27 12:36:23;;;;;;;31.42;29.10;;;21.50;99.90;;;;;;4987218;28;20049;-71